X  Zatvori METAR podaci zračne luke     YMML Melbourne International Airport
Temperatura
15°C Temperatura
12°C Točka rosišta
82% Vlaga



Vjetar
6 MPS
10 KM/S
3 M/S
5 Čvorovi



230°
JZ
Trenutna situacija

Djelimično oblačno Djelimično oblačno
Tlak zraka 1016.93 (hPa) - 30.03 (inHg)
Vidljivost 6 (milje) - 9.7 (km)
Zračna luka
Kôd zračne luke YMML

Lokacija: Melbourne International Airport
Udaljenost: 18 (mi)

Metar:
YMML 012030Z 23005KT 9999 FEW025 SCT044 BKN300 15/12 Q1017 RF00.0/000.0

Vrijeme: 02-03-2024 07:30 AEDT